sensor_id;sensor_type;location;lat;lon;timestamp;P1;durP1;ratioP1;P2;durP2;ratioP2
33138;SDS011;19501;50.948;5.316;2022-09-09T00:00:20;351.48;;;332.00;;
33138;SDS011;19501;50.948;5.316;2022-09-09T00:02:58;372.45;;;351.65;;
33138;SDS011;19501;50.948;5.316;2022-09-09T00:05:33;44.05;;;41.05;;
33138;SDS011;19501;50.948;5.316;2022-09-09T00:08:20;34.50;;;31.73;;
33138;SDS011;19501;50.948;5.316;2022-09-09T00:10:54;21.88;;;20.00;;
33138;SDS011;19501;50.948;5.316;2022-09-09T00:13:28;25.58;;;23.60;;
33138;SDS011;19501;50.948;5.316;2022-09-09T00:16:00;30.02;;;27.63;;
33138;SDS011;19501;50.948;5.316;2022-09-09T00:18:50;43.42;;;39.80;;
33138;SDS011;19501;50.948;5.316;2022-09-09T00:21:21;44.90;;;41.53;;
33138;SDS011;19501;50.948;5.316;2022-09-09T00:23:53;43.97;;;40.80;;
33138;SDS011;19501;50.948;5.316;2022-09-09T00:26:22;40.08;;;37.30;;
33138;SDS011;19501;50.948;5.316;2022-09-09T00:31:23;33.65;;;31.20;;
33138;SDS011;19501;50.948;5.316;2022-09-09T00:33:52;30.85;;;28.23;;
33138;SDS011;19501;50.948;5.316;2022-09-09T00:36:20;23.83;;;21.73;;
33138;SDS011;19501;50.948;5.316;2022-09-09T00:38:49;31.83;;;29.35;;
33138;SDS011;19501;50.948;5.316;2022-09-09T00:44:35;37.85;;;34.65;;
33138;SDS011;19501;50.948;5.316;2022-09-09T00:50:01;39.45;;;36.50;;
33138;SDS011;19501;50.948;5.316;2022-09-09T00:52:51;33.75;;;31.23;;
33138;SDS011;19501;50.948;5.316;2022-09-09T00:58:30;44.30;;;40.90;;
33138;SDS011;19501;50.948;5.316;2022-09-09T01:00:58;38.08;;;35.25;;
33138;SDS011;19501;50.948;5.316;2022-09-09T01:06:34;33.00;;;30.40;;
33138;SDS011;19501;50.948;5.316;2022-09-09T01:17:03;35.70;;;33.00;;
33138;SDS011;19501;50.948;5.316;2022-09-09T01:20:14;38.20;;;35.55;;
33138;SDS011;19501;50.948;5.316;2022-09-09T01:25:29;41.38;;;38.35;;
33138;SDS011;19501;50.948;5.316;2022-09-09T01:28:16;38.20;;;35.38;;
33138;SDS011;19501;50.948;5.316;2022-09-09T01:30:46;13.82;;;11.20;;
33138;SDS011;19501;50.948;5.316;2022-09-09T01:33:13;18.00;;;16.23;;
33138;SDS011;19501;50.948;5.316;2022-09-09T01:38:32;17.27;;;15.45;;
33138;SDS011;19501;50.948;5.316;2022-09-09T01:41:00;24.08;;;21.85;;
33138;SDS011;19501;50.948;5.316;2022-09-09T01:43:26;22.98;;;20.73;;
33138;SDS011;19501;50.948;5.316;2022-09-09T01:45:53;17.88;;;15.85;;
33138;SDS011;19501;50.948;5.316;2022-09-09T01:48:21;22.38;;;20.40;;
33138;SDS011;19501;50.948;5.316;2022-09-09T01:50:49;23.80;;;21.50;;
33138;SDS011;19501;50.948;5.316;2022-09-09T01:53:15;21.45;;;19.23;;
33138;SDS011;19501;50.948;5.316;2022-09-09T01:55:48;18.88;;;14.38;;
33138;SDS011;19501;50.948;5.316;2022-09-09T02:03:56;19.02;;;17.30;;
33138;SDS011;19501;50.948;5.316;2022-09-09T02:09:05;36.28;;;33.13;;
33138;SDS011;19501;50.948;5.316;2022-09-09T02:11:35;9.93;;;4.57;;
33138;SDS011;19501;50.948;5.316;2022-09-09T02:14:07;6.45;;;3.05;;
33138;SDS011;19501;50.948;5.316;2022-09-09T02:16:39;8.82;;;2.92;;
33138;SDS011;19501;50.948;5.316;2022-09-09T02:19:20;7.68;;;3.67;;
33138;SDS011;19501;50.948;5.316;2022-09-09T02:21:52;9.02;;;3.13;;
33138;SDS011;19501;50.948;5.316;2022-09-09T02:24:20;7.40;;;3.65;;
33138;SDS011;19501;50.948;5.316;2022-09-09T02:26:48;16.50;;;6.88;;
33138;SDS011;19501;50.948;5.316;2022-09-09T02:29:18;9.05;;;3.35;;
33138;SDS011;19501;50.948;5.316;2022-09-09T02:31:48;6.38;;;3.47;;
33138;SDS011;19501;50.948;5.316;2022-09-09T02:34:16;10.02;;;5.20;;
33138;SDS011;19501;50.948;5.316;2022-09-09T02:36:45;9.30;;;3.90;;
33138;SDS011;19501;50.948;5.316;2022-09-09T02:39:12;14.65;;;4.80;;
33138;SDS011;19501;50.948;5.316;2022-09-09T02:41:40;15.82;;;13.13;;
33138;SDS011;19501;50.948;5.316;2022-09-09T02:44:16;11.43;;;4.65;;
33138;SDS011;19501;50.948;5.316;2022-09-09T02:52:06;11.23;;;4.65;;
33138;SDS011;19501;50.948;5.316;2022-09-09T02:54:34;11.30;;;5.00;;
33138;SDS011;19501;50.948;5.316;2022-09-09T02:59:35;11.30;;;7.68;;
33138;SDS011;19501;50.948;5.316;2022-09-09T03:02:00;14.30;;;10.48;;
33138;SDS011;19501;50.948;5.316;2022-09-09T03:04:27;14.43;;;8.15;;
33138;SDS011;19501;50.948;5.316;2022-09-09T03:06:52;12.88;;;7.13;;
33138;SDS011;19501;50.948;5.316;2022-09-09T03:09:18;15.98;;;13.68;;
33138;SDS011;19501;50.948;5.316;2022-09-09T03:11:43;23.92;;;20.88;;
33138;SDS011;19501;50.948;5.316;2022-09-09T03:14:09;13.63;;;7.57;;
33138;SDS011;19501;50.948;5.316;2022-09-09T03:16:36;14.80;;;8.73;;
33138;SDS011;19501;50.948;5.316;2022-09-09T03:19:02;9.10;;;5.95;;
33138;SDS011;19501;50.948;5.316;2022-09-09T03:21:28;11.35;;;3.40;;
33138;SDS011;19501;50.948;5.316;2022-09-09T03:23:54;12.25;;;4.63;;
33138;SDS011;19501;50.948;5.316;2022-09-09T03:26:20;8.40;;;2.65;;
33138;SDS011;19501;50.948;5.316;2022-09-09T03:28:46;13.88;;;4.82;;
33138;SDS011;19501;50.948;5.316;2022-09-09T03:31:12;9.77;;;6.57;;
33138;SDS011;19501;50.948;5.316;2022-09-09T03:33:38;15.65;;;4.80;;
33138;SDS011;19501;50.948;5.316;2022-09-09T03:36:03;9.30;;;3.10;;
33138;SDS011;19501;50.948;5.316;2022-09-09T03:38:30;7.38;;;2.70;;
33138;SDS011;19501;50.948;5.316;2022-09-09T03:40:57;8.23;;;2.53;;
33138;SDS011;19501;50.948;5.316;2022-09-09T03:43:26;8.32;;;2.67;;
33138;SDS011;19501;50.948;5.316;2022-09-09T03:45:52;10.52;;;3.13;;
33138;SDS011;19501;50.948;5.316;2022-09-09T03:48:21;7.97;;;3.40;;
33138;SDS011;19501;50.948;5.316;2022-09-09T03:50:48;7.97;;;2.70;;
33138;SDS011;19501;50.948;5.316;2022-09-09T03:53:16;12.30;;;3.50;;
33138;SDS011;19501;50.948;5.316;2022-09-09T03:55:47;9.80;;;2.67;;
33138;SDS011;19501;50.948;5.316;2022-09-09T03:58:20;8.70;;;2.63;;
33138;SDS011;19501;50.948;5.316;2022-09-09T04:00:56;12.88;;;3.42;;
33138;SDS011;19501;50.948;5.316;2022-09-09T04:03:24;7.25;;;2.65;;
33138;SDS011;19501;50.948;5.316;2022-09-09T04:05:53;11.23;;;3.13;;
33138;SDS011;19501;50.948;5.316;2022-09-09T04:08:20;6.85;;;2.55;;
33138;SDS011;19501;50.948;5.316;2022-09-09T04:10:47;7.57;;;3.35;;
33138;SDS011;19501;50.948;5.316;2022-09-09T04:13:14;6.30;;;2.70;;
33138;SDS011;19501;50.948;5.316;2022-09-09T04:15:42;14.75;;;3.15;;
33138;SDS011;19501;50.948;5.316;2022-09-09T04:18:09;11.90;;;3.45;;
33138;SDS011;19501;50.948;5.316;2022-09-09T04:20:35;8.43;;;4.82;;
33138;SDS011;19501;50.948;5.316;2022-09-09T04:23:01;11.25;;;3.20;;
33138;SDS011;19501;50.948;5.316;2022-09-09T04:25:26;13.70;;;3.20;;
33138;SDS011;19501;50.948;5.316;2022-09-09T04:27:56;16.38;;;5.53;;
33138;SDS011;19501;50.948;5.316;2022-09-09T04:30:23;34.00;;;21.77;;
33138;SDS011;19501;50.948;5.316;2022-09-09T04:32:49;8.55;;;4.07;;
33138;SDS011;19501;50.948;5.316;2022-09-09T04:35:15;11.18;;;3.13;;
33138;SDS011;19501;50.948;5.316;2022-09-09T04:37:41;11.68;;;2.90;;
33138;SDS011;19501;50.948;5.316;2022-09-09T04:40:07;12.60;;;4.25;;
33138;SDS011;19501;50.948;5.316;2022-09-09T04:42:38;14.18;;;4.80;;
33138;SDS011;19501;50.948;5.316;2022-09-09T04:45:05;13.13;;;5.80;;
33138;SDS011;19501;50.948;5.316;2022-09-09T04:47:32;10.13;;;5.15;;
33138;SDS011;19501;50.948;5.316;2022-09-09T04:49:59;21.00;;;15.98;;
33138;SDS011;19501;50.948;5.316;2022-09-09T04:52:25;13.32;;;9.00;;
33138;SDS011;19501;50.948;5.316;2022-09-09T04:54:51;33.00;;;20.17;;
33138;SDS011;19501;50.948;5.316;2022-09-09T04:57:19;14.10;;;5.25;;
33138;SDS011;19501;50.948;5.316;2022-09-09T04:59:45;16.13;;;4.68;;
33138;SDS011;19501;50.948;5.316;2022-09-09T05:02:11;11.43;;;3.80;;
33138;SDS011;19501;50.948;5.316;2022-09-09T05:04:37;11.35;;;4.25;;
33138;SDS011;19501;50.948;5.316;2022-09-09T05:07:02;10.77;;;3.60;;
33138;SDS011;19501;50.948;5.316;2022-09-09T05:09:28;12.98;;;4.90;;
33138;SDS011;19501;50.948;5.316;2022-09-09T05:11:54;12.00;;;3.92;;
33138;SDS011;19501;50.948;5.316;2022-09-09T05:14:20;9.60;;;3.13;;
33138;SDS011;19501;50.948;5.316;2022-09-09T05:16:47;14.27;;;4.40;;
33138;SDS011;19501;50.948;5.316;2022-09-09T05:19:14;15.50;;;4.45;;
33138;SDS011;19501;50.948;5.316;2022-09-09T05:21:40;9.38;;;3.72;;
33138;SDS011;19501;50.948;5.316;2022-09-09T05:24:06;14.13;;;4.35;;
33138;SDS011;19501;50.948;5.316;2022-09-09T05:26:32;14.68;;;6.28;;
33138;SDS011;19501;50.948;5.316;2022-09-09T05:28:58;22.58;;;17.70;;
33138;SDS011;19501;50.948;5.316;2022-09-09T05:31:25;12.00;;;3.50;;
33138;SDS011;19501;50.948;5.316;2022-09-09T05:33:53;12.02;;;3.22;;
33138;SDS011;19501;50.948;5.316;2022-09-09T05:36:20;35.03;;;31.48;;
33138;SDS011;19501;50.948;5.316;2022-09-09T05:38:46;16.83;;;10.80;;
33138;SDS011;19501;50.948;5.316;2022-09-09T05:41:13;62.70;;;44.40;;
33138;SDS011;19501;50.948;5.316;2022-09-09T05:43:43;21.75;;;7.93;;
33138;SDS011;19501;50.948;5.316;2022-09-09T05:46:30;12.25;;;5.85;;
33138;SDS011;19501;50.948;5.316;2022-09-09T05:48:55;14.73;;;6.05;;
33138;SDS011;19501;50.948;5.316;2022-09-09T05:51:25;14.45;;;4.20;;
33138;SDS011;19501;50.948;5.316;2022-09-09T05:53:55;23.52;;;16.67;;
33138;SDS011;19501;50.948;5.316;2022-09-09T05:56:24;22.70;;;17.33;;
33138;SDS011;19501;50.948;5.316;2022-09-09T05:58:52;103.15;;;79.28;;
33138;SDS011;19501;50.948;5.316;2022-09-09T06:01:25;60.67;;;48.75;;
33138;SDS011;19501;50.948;5.316;2022-09-09T06:03:53;11.57;;;6.35;;
33138;SDS011;19501;50.948;5.316;2022-09-09T06:06:21;12.85;;;4.97;;
33138;SDS011;19501;50.948;5.316;2022-09-09T06:08:51;18.40;;;4.88;;
33138;SDS011;19501;50.948;5.316;2022-09-09T06:11:25;24.10;;;14.18;;
33138;SDS011;19501;50.948;5.316;2022-09-09T06:13:57;22.13;;;13.55;;
33138;SDS011;19501;50.948;5.316;2022-09-09T06:16:23;15.70;;;4.55;;
33138;SDS011;19501;50.948;5.316;2022-09-09T06:18:52;87.03;;;68.80;;
33138;SDS011;19501;50.948;5.316;2022-09-09T06:21:23;17.83;;;4.15;;
33138;SDS011;19501;50.948;5.316;2022-09-09T06:23:50;19.83;;;17.67;;
33138;SDS011;19501;50.948;5.316;2022-09-09T06:26:20;54.83;;;44.67;;
33138;SDS011;19501;50.948;5.316;2022-09-09T06:28:48;18.52;;;3.92;;
33138;SDS011;19501;50.948;5.316;2022-09-09T06:31:16;17.60;;;5.45;;
33138;SDS011;19501;50.948;5.316;2022-09-09T06:33:46;22.17;;;17.35;;
33138;SDS011;19501;50.948;5.316;2022-09-09T06:36:13;19.15;;;10.70;;
33138;SDS011;19501;50.948;5.316;2022-09-09T06:38:47;14.95;;;6.65;;
33138;SDS011;19501;50.948;5.316;2022-09-09T06:41:14;14.00;;;4.85;;
33138;SDS011;19501;50.948;5.316;2022-09-09T06:43:42;83.45;;;64.82;;
33138;SDS011;19501;50.948;5.316;2022-09-09T06:48:40;38.08;;;28.17;;
33138;SDS011;19501;50.948;5.316;2022-09-09T06:51:08;12.02;;;5.70;;
33138;SDS011;19501;50.948;5.316;2022-09-09T06:53:40;12.23;;;5.65;;
33138;SDS011;19501;50.948;5.316;2022-09-09T06:58:36;72.15;;;63.88;;
33138;SDS011;19501;50.948;5.316;2022-09-09T07:03:37;17.08;;;11.50;;
33138;SDS011;19501;50.948;5.316;2022-09-09T07:06:03;28.95;;;26.38;;
33138;SDS011;19501;50.948;5.316;2022-09-09T07:08:36;47.55;;;43.08;;
33138;SDS011;19501;50.948;5.316;2022-09-09T07:11:03;63.10;;;55.65;;
33138;SDS011;19501;50.948;5.316;2022-09-09T07:13:30;65.30;;;57.88;;
33138;SDS011;19501;50.948;5.316;2022-09-09T07:16:03;143.00;;;103.53;;
33138;SDS011;19501;50.948;5.316;2022-09-09T07:18:29;101.15;;;87.97;;
33138;SDS011;19501;50.948;5.316;2022-09-09T07:20:55;24.70;;;12.70;;
33138;SDS011;19501;50.948;5.316;2022-09-09T07:23:22;44.58;;;39.72;;
33138;SDS011;19501;50.948;5.316;2022-09-09T07:25:48;36.03;;;32.33;;
33138;SDS011;19501;50.948;5.316;2022-09-09T07:28:14;22.88;;;12.35;;
33138;SDS011;19501;50.948;5.316;2022-09-09T07:30:39;75.90;;;53.03;;
33138;SDS011;19501;50.948;5.316;2022-09-09T07:33:06;33.03;;;29.35;;
33138;SDS011;19501;50.948;5.316;2022-09-09T07:35:32;20.15;;;14.75;;
33138;SDS011;19501;50.948;5.316;2022-09-09T07:38:00;80.70;;;72.18;;
33138;SDS011;19501;50.948;5.316;2022-09-09T07:40:26;34.97;;;29.85;;
33138;SDS011;19501;50.948;5.316;2022-09-09T07:42:52;12.52;;;6.97;;
33138;SDS011;19501;50.948;5.316;2022-09-09T07:45:18;93.57;;;84.18;;
33138;SDS011;19501;50.948;5.316;2022-09-09T07:47:44;67.80;;;61.28;;
33138;SDS011;19501;50.948;5.316;2022-09-09T07:50:10;111.88;;;96.68;;
33138;SDS011;19501;50.948;5.316;2022-09-09T07:52:36;199.00;;;151.43;;
33138;SDS011;19501;50.948;5.316;2022-09-09T07:55:02;10.30;;;3.20;;
33138;SDS011;19501;50.948;5.316;2022-09-09T07:57:29;9.70;;;2.50;;
33138;SDS011;19501;50.948;5.316;2022-09-09T07:59:55;11.52;;;3.15;;
33138;SDS011;19501;50.948;5.316;2022-09-09T08:02:22;12.35;;;2.88;;
33138;SDS011;19501;50.948;5.316;2022-09-09T08:04:52;5.05;;;2.50;;
33138;SDS011;19501;50.948;5.316;2022-09-09T08:07:18;14.88;;;3.35;;
33138;SDS011;19501;50.948;5.316;2022-09-09T08:09:45;15.20;;;3.22;;
33138;SDS011;19501;50.948;5.316;2022-09-09T08:12:11;11.97;;;3.03;;
33138;SDS011;19501;50.948;5.316;2022-09-09T08:14:37;10.15;;;2.88;;
33138;SDS011;19501;50.948;5.316;2022-09-09T08:17:05;10.70;;;2.50;;
33138;SDS011;19501;50.948;5.316;2022-09-09T08:19:30;9.05;;;2.83;;
33138;SDS011;19501;50.948;5.316;2022-09-09T08:21:59;12.48;;;2.92;;
33138;SDS011;19501;50.948;5.316;2022-09-09T08:24:26;8.48;;;2.58;;
33138;SDS011;19501;50.948;5.316;2022-09-09T08:26:52;12.90;;;2.50;;
33138;SDS011;19501;50.948;5.316;2022-09-09T08:29:18;9.50;;;2.70;;
33138;SDS011;19501;50.948;5.316;2022-09-09T08:31:45;9.60;;;2.90;;
33138;SDS011;19501;50.948;5.316;2022-09-09T08:34:12;10.15;;;2.95;;
33138;SDS011;19501;50.948;5.316;2022-09-09T08:36:40;10.00;;;2.60;;
33138;SDS011;19501;50.948;5.316;2022-09-09T08:39:11;14.32;;;2.95;;
33138;SDS011;19501;50.948;5.316;2022-09-09T08:58:16;19.10;;;3.20;;
33138;SDS011;19501;50.948;5.316;2022-09-09T09:03:35;13.77;;;3.22;;
33138;SDS011;19501;50.948;5.316;2022-09-09T09:09:21;10.95;;;2.97;;
33138;SDS011;19501;50.948;5.316;2022-09-09T09:11:56;11.40;;;2.75;;
33138;SDS011;19501;50.948;5.316;2022-09-09T09:14:30;12.00;;;2.78;;
33138;SDS011;19501;50.948;5.316;2022-09-09T09:17:03;7.20;;;2.63;;
33138;SDS011;19501;50.948;5.316;2022-09-09T09:19:38;13.00;;;3.20;;
33138;SDS011;19501;50.948;5.316;2022-09-09T09:22:22;7.70;;;2.50;;
33138;SDS011;19501;50.948;5.316;2022-09-09T09:24:55;12.13;;;3.08;;
33138;SDS011;19501;50.948;5.316;2022-09-09T09:30:21;8.15;;;2.50;;
33138;SDS011;19501;50.948;5.316;2022-09-09T09:33:00;7.25;;;2.47;;
33138;SDS011;19501;50.948;5.316;2022-09-09T09:35:45;11.45;;;2.35;;
33138;SDS011;19501;50.948;5.316;2022-09-09T09:38:17;8.50;;;2.30;;
33138;SDS011;19501;50.948;5.316;2022-09-09T09:40:53;8.55;;;2.55;;
33138;SDS011;19501;50.948;5.316;2022-09-09T09:43:32;11.73;;;2.33;;
33138;SDS011;19501;50.948;5.316;2022-09-09T09:46:00;9.93;;;2.38;;
33138;SDS011;19501;50.948;5.316;2022-09-09T09:48:29;9.88;;;2.38;;
33138;SDS011;19501;50.948;5.316;2022-09-09T09:50:56;9.65;;;2.42;;
33138;SDS011;19501;50.948;5.316;2022-09-09T09:53:31;8.40;;;2.47;;
33138;SDS011;19501;50.948;5.316;2022-09-09T09:56:10;6.65;;;2.30;;
33138;SDS011;19501;50.948;5.316;2022-09-09T10:01:23;8.02;;;2.72;;
33138;SDS011;19501;50.948;5.316;2022-09-09T10:03:58;8.10;;;2.75;;
33138;SDS011;19501;50.948;5.316;2022-09-09T10:06:38;9.98;;;3.15;;
33138;SDS011;19501;50.948;5.316;2022-09-09T10:09:26;11.93;;;3.10;;
33138;SDS011;19501;50.948;5.316;2022-09-09T10:12:06;9.23;;;2.70;;
33138;SDS011;19501;50.948;5.316;2022-09-09T10:20:23;12.73;;;3.35;;
33138;SDS011;19501;50.948;5.316;2022-09-09T10:31:51;13.50;;;3.70;;
33138;SDS011;19501;50.948;5.316;2022-09-09T10:37:03;15.52;;;3.92;;
33138;SDS011;19501;50.948;5.316;2022-09-09T10:40:48;10.57;;;3.28;;
33138;SDS011;19501;50.948;5.316;2022-09-09T10:49:06;19.58;;;4.97;;
33138;SDS011;19501;50.948;5.316;2022-09-09T10:57:12;13.60;;;5.35;;
33138;SDS011;19501;50.948;5.316;2022-09-09T11:00:05;17.10;;;4.75;;
33138;SDS011;19501;50.948;5.316;2022-09-09T11:02:39;14.30;;;4.32;;
33138;SDS011;19501;50.948;5.316;2022-09-09T11:05:20;14.20;;;4.65;;
33138;SDS011;19501;50.948;5.316;2022-09-09T11:07:55;16.75;;;4.60;;
33138;SDS011;19501;50.948;5.316;2022-09-09T11:10:34;10.45;;;4.10;;
33138;SDS011;19501;50.948;5.316;2022-09-09T11:13:09;10.98;;;3.40;;
33138;SDS011;19501;50.948;5.316;2022-09-09T11:15:49;12.70;;;4.50;;
33138;SDS011;19501;50.948;5.316;2022-09-09T11:18:20;16.98;;;4.20;;
33138;SDS011;19501;50.948;5.316;2022-09-09T11:20:49;14.48;;;5.35;;
33138;SDS011;19501;50.948;5.316;2022-09-09T11:23:22;15.27;;;4.90;;
33138;SDS011;19501;50.948;5.316;2022-09-09T11:25:55;12.05;;;4.40;;
33138;SDS011;19501;50.948;5.316;2022-09-09T11:28:34;10.85;;;4.07;;
33138;SDS011;19501;50.948;5.316;2022-09-09T11:36:48;15.05;;;4.15;;
33138;SDS011;19501;50.948;5.316;2022-09-09T11:44:51;14.43;;;3.90;;
33138;SDS011;19501;50.948;5.316;2022-09-09T11:47:29;15.85;;;4.10;;
33138;SDS011;19501;50.948;5.316;2022-09-09T11:52:41;12.50;;;3.67;;
33138;SDS011;19501;50.948;5.316;2022-09-09T11:55:30;8.32;;;3.20;;
33138;SDS011;19501;50.948;5.316;2022-09-09T11:58:02;12.50;;;4.30;;
33138;SDS011;19501;50.948;5.316;2022-09-09T12:03:00;17.38;;;4.13;;
33138;SDS011;19501;50.948;5.316;2022-09-09T12:05:42;10.38;;;3.50;;
33138;SDS011;19501;50.948;5.316;2022-09-09T12:08:10;12.68;;;3.60;;
33138;SDS011;19501;50.948;5.316;2022-09-09T12:10:52;8.43;;;3.45;;
33138;SDS011;19501;50.948;5.316;2022-09-09T12:13:21;13.63;;;3.35;;
33138;SDS011;19501;50.948;5.316;2022-09-09T12:15:50;11.00;;;3.55;;
33138;SDS011;19501;50.948;5.316;2022-09-09T12:18:37;11.00;;;3.53;;
33138;SDS011;19501;50.948;5.316;2022-09-09T12:21:16;12.60;;;3.47;;
33138;SDS011;19501;50.948;5.316;2022-09-09T12:24:01;8.88;;;3.30;;
33138;SDS011;19501;50.948;5.316;2022-09-09T12:37:10;7.73;;;3.47;;
33138;SDS011;19501;50.948;5.316;2022-09-09T12:39:51;8.80;;;2.90;;
33138;SDS011;19501;50.948;5.316;2022-09-09T12:42:22;12.20;;;3.42;;
33138;SDS011;19501;50.948;5.316;2022-09-09T12:49:54;10.68;;;3.15;;
33138;SDS011;19501;50.948;5.316;2022-09-09T12:54:55;10.00;;;3.13;;
33138;SDS011;19501;50.948;5.316;2022-09-09T12:57:24;6.53;;;2.80;;
33138;SDS011;19501;50.948;5.316;2022-09-09T12:59:51;8.65;;;2.70;;
33138;SDS011;19501;50.948;5.316;2022-09-09T13:02:19;8.82;;;2.70;;
33138;SDS011;19501;50.948;5.316;2022-09-09T13:04:47;9.10;;;2.92;;
33138;SDS011;19501;50.948;5.316;2022-09-09T13:07:15;9.05;;;3.10;;
33138;SDS011;19501;50.948;5.316;2022-09-09T13:09:43;8.07;;;2.67;;
33138;SDS011;19501;50.948;5.316;2022-09-09T13:12:13;7.72;;;3.17;;
33138;SDS011;19501;50.948;5.316;2022-09-09T13:14:45;8.48;;;2.67;;
33138;SDS011;19501;50.948;5.316;2022-09-09T13:17:20;10.25;;;3.03;;
33138;SDS011;19501;50.948;5.316;2022-09-09T13:19:49;11.88;;;5.07;;
33138;SDS011;19501;50.948;5.316;2022-09-09T13:25:20;12.02;;;3.28;;
33138;SDS011;19501;50.948;5.316;2022-09-09T13:27:54;7.53;;;2.90;;
33138;SDS011;19501;50.948;5.316;2022-09-09T13:33:05;10.27;;;3.00;;
33138;SDS011;19501;50.948;5.316;2022-09-09T13:35:34;10.82;;;2.50;;
33138;SDS011;19501;50.948;5.316;2022-09-09T13:38:07;6.20;;;2.22;;
33138;SDS011;19501;50.948;5.316;2022-09-09T13:40:34;9.85;;;3.13;;
33138;SDS011;19501;50.948;5.316;2022-09-09T13:43:01;12.88;;;2.92;;
33138;SDS011;19501;50.948;5.316;2022-09-09T13:45:28;7.22;;;2.60;;
33138;SDS011;19501;50.948;5.316;2022-09-09T13:47:54;6.88;;;2.67;;
33138;SDS011;19501;50.948;5.316;2022-09-09T13:50:27;6.00;;;2.72;;
33138;SDS011;19501;50.948;5.316;2022-09-09T13:52:55;13.38;;;2.70;;
33138;SDS011;19501;50.948;5.316;2022-09-09T13:57:53;7.07;;;2.63;;
33138;SDS011;19501;50.948;5.316;2022-09-09T14:00:21;6.70;;;2.58;;
33138;SDS011;19501;50.948;5.316;2022-09-09T14:02:48;6.15;;;2.50;;
33138;SDS011;19501;50.948;5.316;2022-09-09T14:05:14;7.32;;;2.53;;
33138;SDS011;19501;50.948;5.316;2022-09-09T14:07:41;9.02;;;2.60;;
33138;SDS011;19501;50.948;5.316;2022-09-09T14:10:08;6.15;;;2.50;;
33138;SDS011;19501;50.948;5.316;2022-09-09T14:12:35;5.35;;;2.40;;
33138;SDS011;19501;50.948;5.316;2022-09-09T14:15:01;10.20;;;2.63;;
33138;SDS011;19501;50.948;5.316;2022-09-09T14:17:28;9.48;;;2.45;;
33138;SDS011;19501;50.948;5.316;2022-09-09T14:19:55;10.25;;;2.72;;
33138;SDS011;19501;50.948;5.316;2022-09-09T14:22:21;10.40;;;3.00;;
33138;SDS011;19501;50.948;5.316;2022-09-09T14:24:47;8.45;;;2.55;;
33138;SDS011;19501;50.948;5.316;2022-09-09T14:27:13;9.30;;;2.55;;
33138;SDS011;19501;50.948;5.316;2022-09-09T14:29:39;8.98;;;2.90;;
33138;SDS011;19501;50.948;5.316;2022-09-09T14:32:05;8.57;;;2.78;;
33138;SDS011;19501;50.948;5.316;2022-09-09T14:34:31;7.88;;;2.30;;
33138;SDS011;19501;50.948;5.316;2022-09-09T14:36:58;7.05;;;2.45;;
33138;SDS011;19501;50.948;5.316;2022-09-09T14:39:24;6.82;;;2.50;;
33138;SDS011;19501;50.948;5.316;2022-09-09T14:41:49;7.03;;;2.50;;
33138;SDS011;19501;50.948;5.316;2022-09-09T14:44:15;6.03;;;2.47;;
33138;SDS011;19501;50.948;5.316;2022-09-09T14:46:43;6.05;;;2.20;;
33138;SDS011;19501;50.948;5.316;2022-09-09T14:49:09;7.38;;;2.58;;
33138;SDS011;19501;50.948;5.316;2022-09-09T14:51:35;3.72;;;2.35;;
33138;SDS011;19501;50.948;5.316;2022-09-09T14:54:01;7.28;;;2.30;;
33138;SDS011;19501;50.948;5.316;2022-09-09T14:56:28;5.95;;;2.13;;
33138;SDS011;19501;50.948;5.316;2022-09-09T14:58:56;10.35;;;2.55;;
33138;SDS011;19501;50.948;5.316;2022-09-09T15:01:24;7.43;;;3.45;;
33138;SDS011;19501;50.948;5.316;2022-09-09T15:03:54;5.25;;;2.20;;
33138;SDS011;19501;50.948;5.316;2022-09-09T15:06:23;6.88;;;2.63;;
33138;SDS011;19501;50.948;5.316;2022-09-09T15:08:50;8.82;;;2.58;;
33138;SDS011;19501;50.948;5.316;2022-09-09T15:11:17;8.18;;;2.60;;
33138;SDS011;19501;50.948;5.316;2022-09-09T15:13:43;8.20;;;2.72;;
33138;SDS011;19501;50.948;5.316;2022-09-09T15:18:37;7.18;;;2.63;;
33138;SDS011;19501;50.948;5.316;2022-09-09T15:21:06;7.25;;;2.80;;
33138;SDS011;19501;50.948;5.316;2022-09-09T15:23:32;7.43;;;2.70;;
33138;SDS011;19501;50.948;5.316;2022-09-09T15:25:58;3.92;;;2.60;;
33138;SDS011;19501;50.948;5.316;2022-09-09T15:28:23;7.07;;;2.75;;
33138;SDS011;19501;50.948;5.316;2022-09-09T15:30:50;4.85;;;2.55;;
33138;SDS011;19501;50.948;5.316;2022-09-09T15:33:17;8.57;;;3.00;;
33138;SDS011;19501;50.948;5.316;2022-09-09T15:35:43;7.40;;;2.58;;
33138;SDS011;19501;50.948;5.316;2022-09-09T15:38:09;8.90;;;2.80;;
33138;SDS011;19501;50.948;5.316;2022-09-09T15:40:34;9.10;;;2.53;;
33138;SDS011;19501;50.948;5.316;2022-09-09T15:43:01;19.55;;;4.28;;
33138;SDS011;19501;50.948;5.316;2022-09-09T15:45:28;5.90;;;2.38;;
33138;SDS011;19501;50.948;5.316;2022-09-09T15:47:57;5.78;;;2.30;;
33138;SDS011;19501;50.948;5.316;2022-09-09T15:50:23;6.70;;;3.00;;
33138;SDS011;19501;50.948;5.316;2022-09-09T15:52:48;6.68;;;2.53;;
33138;SDS011;19501;50.948;5.316;2022-09-09T15:55:14;11.15;;;3.15;;
33138;SDS011;19501;50.948;5.316;2022-09-09T15:57:40;7.45;;;2.50;;
33138;SDS011;19501;50.948;5.316;2022-09-09T16:00:06;6.22;;;2.38;;
33138;SDS011;19501;50.948;5.316;2022-09-09T16:02:32;8.57;;;2.40;;
33138;SDS011;19501;50.948;5.316;2022-09-09T16:05:00;7.13;;;2.35;;
33138;SDS011;19501;50.948;5.316;2022-09-09T16:07:26;7.20;;;2.47;;
33138;SDS011;19501;50.948;5.316;2022-09-09T16:09:52;4.80;;;2.40;;
33138;SDS011;19501;50.948;5.316;2022-09-09T16:12:18;7.43;;;2.55;;
33138;SDS011;19501;50.948;5.316;2022-09-09T16:14:44;7.07;;;2.50;;
33138;SDS011;19501;50.948;5.316;2022-09-09T16:17:10;6.97;;;2.42;;
33138;SDS011;19501;50.948;5.316;2022-09-09T16:19:36;8.70;;;2.42;;
33138;SDS011;19501;50.948;5.316;2022-09-09T16:22:02;7.55;;;2.67;;
33138;SDS011;19501;50.948;5.316;2022-09-09T16:24:32;4.60;;;2.20;;
33138;SDS011;19501;50.948;5.316;2022-09-09T16:27:00;5.75;;;2.50;;
33138;SDS011;19501;50.948;5.316;2022-09-09T16:29:25;5.65;;;2.50;;
33138;SDS011;19501;50.948;5.316;2022-09-09T16:31:52;6.88;;;2.33;;
33138;SDS011;19501;50.948;5.316;2022-09-09T16:34:19;10.52;;;2.55;;
33138;SDS011;19501;50.948;5.316;2022-09-09T16:36:45;8.25;;;2.63;;
33138;SDS011;19501;50.948;5.316;2022-09-09T16:39:14;6.82;;;2.30;;
33138;SDS011;19501;50.948;5.316;2022-09-09T16:41:42;7.43;;;2.25;;
33138;SDS011;19501;50.948;5.316;2022-09-09T16:44:09;6.82;;;2.20;;
33138;SDS011;19501;50.948;5.316;2022-09-09T16:46:37;6.65;;;2.13;;
33138;SDS011;19501;50.948;5.316;2022-09-09T16:49:05;7.15;;;2.40;;
33138;SDS011;19501;50.948;5.316;2022-09-09T16:51:36;10.15;;;2.17;;
33138;SDS011;19501;50.948;5.316;2022-09-09T16:54:04;5.13;;;2.20;;
33138;SDS011;19501;50.948;5.316;2022-09-09T16:56:32;9.65;;;2.13;;
33138;SDS011;19501;50.948;5.316;2022-09-09T16:59:00;4.85;;;2.03;;
33138;SDS011;19501;50.948;5.316;2022-09-09T17:01:29;4.03;;;2.20;;
33138;SDS011;19501;50.948;5.316;2022-09-09T17:03:57;6.20;;;2.20;;
33138;SDS011;19501;50.948;5.316;2022-09-09T17:06:24;6.60;;;2.40;;
33138;SDS011;19501;50.948;5.316;2022-09-09T17:08:54;5.97;;;2.03;;
33138;SDS011;19501;50.948;5.316;2022-09-09T17:11:20;8.43;;;2.10;;
33138;SDS011;19501;50.948;5.316;2022-09-09T17:13:46;6.05;;;2.25;;
33138;SDS011;19501;50.948;5.316;2022-09-09T17:16:18;4.55;;;1.98;;
33138;SDS011;19501;50.948;5.316;2022-09-09T17:18:46;4.70;;;1.92;;
33138;SDS011;19501;50.948;5.316;2022-09-09T17:21:14;5.55;;;2.05;;
33138;SDS011;19501;50.948;5.316;2022-09-09T17:23:42;12.63;;;2.30;;